createdAt,value
2022-09-18T00:01:28.564Z,10.58
2022-09-18T00:04:05.257Z,11.65
2022-09-18T00:06:41.451Z,11.12
2022-09-18T00:09:16.686Z,12.78
2022-09-18T00:11:51.420Z,11.75
2022-09-18T00:14:25.566Z,12.68
2022-09-18T00:16:58.576Z,13.28
2022-09-18T00:19:31.483Z,17.57
2022-09-18T00:22:04.497Z,12.58
2022-09-18T00:24:37.976Z,13.38
2022-09-18T00:27:10.609Z,17.10
2022-09-18T00:29:44.919Z,17.65
2022-09-18T00:32:17.880Z,19.10
2022-09-18T00:34:50.625Z,22.80
2022-09-18T00:37:23.635Z,22.93
2022-09-18T00:39:56.538Z,24.37
2022-09-18T00:42:29.289Z,23.05
2022-09-18T00:45:03.738Z,24.87
2022-09-18T00:47:42.281Z,20.62
2022-09-18T00:50:19.442Z,25.43
2022-09-18T00:52:58.966Z,25.35
2022-09-18T00:55:39.421Z,22.80
2022-09-18T00:58:13.029Z,22.85
2022-09-18T01:00:46.152Z,21.00
2022-09-18T01:03:19.071Z,20.75
2022-09-18T01:06:05.491Z,17.95
2022-09-18T01:08:56.456Z,15.43
2022-09-18T01:12:08.006Z,15.48
2022-09-18T01:14:50.288Z,15.50
2022-09-18T01:17:39.777Z,19.73
2022-09-18T01:20:32.134Z,18.20
2022-09-18T01:23:24.487Z,22.65
2022-09-18T01:26:29.367Z,24.23
2022-09-18T01:29:32.497Z,27.98
2022-09-18T01:32:19.293Z,26.55
2022-09-18T01:35:14.031Z,25.23
2022-09-18T01:37:47.507Z,27.05
2022-09-18T01:40:43.193Z,25.62
2022-09-18T01:43:19.038Z,27.35
2022-09-18T01:45:56.143Z,22.93
2022-09-18T01:48:37.746Z,25.95
2022-09-18T01:51:19.819Z,22.27
2022-09-18T01:54:01.428Z,24.27
2022-09-18T01:56:41.074Z,19.87
2022-09-18T01:59:18.676Z,21.70
2022-09-18T02:01:58.839Z,21.50
2022-09-18T02:04:34.329Z,20.17
2022-09-18T02:07:17.917Z,23.38
2022-09-18T02:09:52.466Z,19.07
2022-09-18T02:12:28.243Z,19.07
2022-09-18T02:15:06.418Z,18.80
2022-09-18T02:17:58.076Z,18.52
2022-09-18T02:20:33.403Z,16.73
2022-09-18T02:23:09.089Z,20.90
2022-09-18T02:25:55.732Z,19.50
2022-09-18T02:28:30.373Z,20.17
2022-09-18T02:33:38.983Z,23.50
2022-09-18T02:36:37.627Z,29.60
2022-09-18T02:39:49.140Z,21.60
2022-09-18T02:42:53.003Z,20.50
2022-09-18T02:45:56.408Z,21.07
2022-09-18T02:48:55.041Z,21.73
2022-09-18T02:51:55.123Z,20.55
2022-09-18T02:54:44.869Z,28.77
2022-09-18T02:57:43.213Z,25.48
2022-09-18T03:00:19.025Z,22.70
2022-09-18T03:02:53.483Z,23.42
2022-09-18T03:05:30.530Z,21.85
2022-09-18T03:08:05.546Z,20.02
2022-09-18T03:10:39.175Z,17.55
2022-09-18T03:13:13.131Z,19.73
2022-09-18T03:15:46.242Z,17.07
2022-09-18T03:18:21.331Z,15.77
2022-09-18T03:20:54.275Z,17.17
2022-09-18T03:23:27.383Z,16.52
2022-09-18T03:26:03.729Z,17.30
2022-09-18T03:28:38.153Z,15.70
2022-09-18T03:31:12.303Z,18.17
2022-09-18T03:33:45.115Z,13.38
2022-09-18T03:36:18.849Z,14.33
2022-09-18T03:38:52.002Z,15.85
2022-09-18T03:41:25.320Z,13.13
2022-09-18T03:43:58.617Z,17.75
2022-09-18T03:46:31.596Z,23.83
2022-09-18T03:49:06.425Z,12.23
2022-09-18T03:54:14.843Z,12.50
2022-09-18T03:56:58.443Z,18.00
2022-09-18T03:59:35.744Z,15.83
2022-09-18T04:02:14.093Z,13.98
2022-09-18T04:04:53.687Z,15.40
2022-09-18T04:07:43.723Z,20.20
2022-09-18T04:10:34.855Z,15.70
2022-09-18T04:13:08.662Z,13.85
2022-09-18T04:15:42.257Z,15.05
2022-09-18T04:18:15.170Z,12.68
2022-09-18T04:20:48.412Z,15.08
2022-09-18T04:23:21.467Z,15.93
2022-09-18T04:25:54.523Z,12.47
2022-09-18T04:28:28.990Z,14.18
2022-09-18T04:31:02.911Z,9.93
2022-09-18T04:33:36.558Z,16.65
2022-09-18T04:36:11.228Z,17.15
2022-09-18T04:38:44.481Z,14.40
2022-09-18T04:41:17.350Z,12.47
2022-09-18T04:43:50.567Z,16.10
2022-09-18T04:46:24.247Z,10.88
2022-09-18T04:48:57.255Z,13.58
2022-09-18T04:51:32.353Z,17.82
2022-09-18T04:54:05.888Z,12.43
2022-09-18T04:56:41.455Z,11.95
2022-09-18T05:01:48.311Z,12.23
2022-09-18T05:04:22.510Z,13.38
2022-09-18T05:07:04.726Z,16.62
2022-09-18T05:09:39.751Z,12.63
2022-09-18T05:12:13.844Z,8.68
2022-09-18T05:14:47.043Z,12.40
2022-09-18T05:20:08.340Z,10.00
2022-09-18T05:22:47.457Z,11.00
2022-09-18T05:25:21.947Z,9.78
2022-09-18T05:28:00.419Z,11.90
2022-09-18T05:30:47.241Z,7.90
2022-09-18T05:33:20.119Z,14.75
2022-09-18T05:35:56.309Z,8.75
2022-09-18T05:38:29.364Z,10.53
2022-09-18T05:41:04.086Z,13.48
2022-09-18T05:43:37.224Z,11.08
2022-09-18T05:46:14.725Z,9.00
2022-09-18T05:48:51.510Z,14.90
2022-09-18T05:51:24.263Z,11.00
2022-09-18T05:53:57.293Z,10.95
2022-09-18T05:56:43.876Z,14.65
2022-09-18T05:59:17.174Z,11.15
2022-09-18T06:01:51.790Z,9.63
2022-09-18T06:04:27.412Z,13.15
2022-09-18T06:07:02.630Z,12.23
2022-09-18T06:09:35.692Z,12.25
2022-09-18T06:12:09.501Z,12.85
2022-09-18T06:14:42.637Z,11.97
2022-09-18T06:17:15.784Z,11.70
2022-09-18T06:19:50.713Z,10.20
2022-09-18T06:22:23.434Z,8.48
2022-09-18T06:24:56.944Z,17.05
2022-09-18T06:27:31.984Z,16.65
2022-09-18T06:30:07.043Z,9.93
2022-09-18T06:32:40.574Z,12.30
2022-09-18T06:35:14.274Z,13.48
2022-09-18T06:37:47.264Z,11.57
2022-09-18T06:40:32.344Z,14.50
2022-09-18T06:43:16.250Z,17.98
2022-09-18T06:45:56.104Z,20.35
2022-09-18T06:48:30.575Z,13.08
2022-09-18T06:51:05.194Z,8.65
2022-09-18T06:53:41.276Z,12.18
2022-09-18T06:56:14.636Z,9.97
2022-09-18T06:58:47.640Z,9.03
2022-09-18T07:01:23.606Z,7.22
2022-09-18T07:03:58.453Z,12.15
2022-09-18T07:06:33.154Z,13.03
2022-09-18T07:09:06.015Z,11.25
2022-09-18T07:11:55.618Z,12.10
2022-09-18T07:14:30.161Z,11.18
2022-09-18T07:17:04.896Z,14.07
2022-09-18T07:19:38.756Z,9.60
2022-09-18T07:22:12.255Z,13.05
2022-09-18T07:24:46.713Z,13.90
2022-09-18T07:27:19.685Z,11.63
2022-09-18T07:29:54.199Z,10.95
2022-09-18T07:32:27.979Z,11.80
2022-09-18T07:35:01.763Z,12.80
2022-09-18T07:37:37.000Z,11.20
2022-09-18T07:40:12.965Z,12.40
2022-09-18T07:43:04.485Z,10.35
2022-09-18T07:45:40.085Z,15.60
2022-09-18T07:48:14.122Z,13.22
2022-09-18T07:50:48.932Z,11.60
2022-09-18T07:53:21.905Z,10.78
2022-09-18T07:55:57.667Z,10.25
2022-09-18T07:58:30.612Z,12.82
2022-09-18T08:01:06.618Z,11.63
2022-09-18T08:03:41.883Z,12.78
2022-09-18T08:06:17.964Z,8.83
2022-09-18T08:09:01.829Z,8.35
2022-09-18T08:11:55.539Z,8.28
2022-09-18T08:14:30.382Z,8.78
2022-09-18T08:17:21.530Z,8.30
2022-09-18T08:20:10.691Z,10.93
2022-09-18T08:22:51.349Z,12.18
2022-09-18T08:25:27.999Z,7.42
2022-09-18T08:28:03.671Z,12.10
2022-09-18T08:30:43.492Z,13.80
2022-09-18T08:33:18.454Z,12.90
2022-09-18T08:35:52.767Z,10.63
2022-09-18T08:38:37.841Z,10.55
2022-09-18T08:42:03.878Z,9.83
2022-09-18T08:44:46.887Z,10.85
2022-09-18T08:47:33.117Z,11.40
2022-09-18T08:50:32.878Z,11.60
2022-09-18T08:53:09.381Z,8.85
2022-09-18T08:59:02.987Z,12.68
2022-09-18T09:01:53.880Z,20.48
2022-09-18T09:04:29.946Z,15.28
2022-09-18T09:07:26.196Z,9.03
2022-09-18T09:10:08.152Z,13.55
2022-09-18T09:13:37.564Z,13.53
2022-09-18T09:16:39.060Z,8.73
2022-09-18T09:19:32.788Z,11.93
2022-09-18T09:22:24.327Z,8.03
2022-09-18T09:25:35.999Z,14.00
2022-09-18T09:28:24.232Z,11.60
2022-09-18T09:31:08.413Z,13.80
2022-09-18T09:34:06.979Z,15.55
2022-09-18T09:36:53.491Z,16.10
2022-09-18T09:39:40.025Z,17.95
2022-09-18T09:42:38.883Z,13.30
2022-09-18T09:45:31.531Z,10.08
2022-09-18T09:48:29.075Z,11.50
2022-09-18T09:51:24.805Z,12.28
2022-09-18T09:54:00.315Z,10.50
2022-09-18T09:57:01.613Z,10.20
2022-09-18T10:00:01.834Z,9.75
2022-09-18T10:03:18.384Z,10.25
2022-09-18T10:06:00.027Z,11.88
2022-09-18T10:08:47.109Z,10.08
2022-09-18T10:11:20.599Z,12.25
2022-09-18T10:14:05.715Z,10.85
2022-09-18T10:16:46.452Z,15.15
2022-09-18T10:19:22.351Z,11.20
2022-09-18T10:21:56.392Z,8.90
2022-09-18T10:24:42.678Z,7.15
2022-09-18T10:27:17.524Z,11.00
2022-09-18T10:29:50.506Z,8.55
2022-09-18T10:32:37.974Z,9.10
2022-09-18T10:35:42.770Z,12.65
2022-09-18T10:38:34.463Z,14.03
2022-09-18T10:41:28.619Z,11.78
2022-09-18T10:44:23.455Z,11.50
2022-09-18T10:47:02.815Z,10.25
2022-09-18T10:49:51.258Z,11.35
2022-09-18T10:52:45.015Z,10.50
2022-09-18T10:55:28.684Z,13.85
2022-09-18T10:58:16.122Z,8.05
2022-09-18T11:01:08.532Z,9.50
2022-09-18T11:04:03.993Z,8.90
2022-09-18T11:06:39.948Z,9.15
2022-09-18T11:09:41.206Z,8.90
2022-09-18T11:12:24.293Z,10.35
2022-09-18T11:15:11.850Z,8.38
2022-09-18T11:17:52.803Z,7.20
2022-09-18T11:20:34.699Z,8.13
2022-09-18T11:26:31.588Z,9.68
2022-09-18T11:29:27.834Z,5.00
2022-09-18T11:32:17.964Z,8.78
2022-09-18T11:35:01.574Z,9.20
2022-09-18T11:40:29.194Z,8.05
2022-09-18T11:43:05.281Z,7.62
2022-09-18T11:45:49.370Z,4.08
2022-09-18T11:48:42.263Z,5.65
2022-09-18T11:51:24.582Z,8.08
2022-09-18T11:54:07.359Z,10.08
2022-09-18T11:56:52.596Z,8.93
2022-09-18T11:59:38.481Z,6.58
2022-09-18T12:02:39.804Z,5.35
2022-09-18T12:05:23.736Z,7.90
2022-09-18T12:08:00.261Z,9.30
2022-09-18T12:11:05.080Z,8.30
2022-09-18T12:13:45.944Z,9.73
2022-09-18T12:16:30.029Z,4.70
2022-09-18T12:19:10.940Z,7.75
2022-09-18T12:22:15.109Z,8.40
2022-09-18T12:24:48.502Z,8.65
2022-09-18T12:27:55.921Z,10.68
2022-09-18T12:30:39.991Z,6.00
2022-09-18T12:33:30.140Z,5.65
2022-09-18T12:36:06.677Z,6.45
2022-09-18T12:39:13.667Z,7.65
2022-09-18T12:42:00.562Z,5.78
2022-09-18T12:44:45.057Z,17.05
2022-09-18T12:47:56.186Z,13.97
2022-09-18T12:51:05.609Z,21.00
2022-09-18T12:54:06.160Z,10.65
2022-09-18T12:56:51.504Z,11.90
2022-09-18T12:59:53.185Z,6.12
2022-09-18T13:02:51.330Z,6.83
2022-09-18T13:05:45.870Z,6.40
2022-09-18T13:08:50.025Z,6.53
2022-09-18T13:11:44.340Z,14.33
2022-09-18T13:14:36.767Z,14.00
2022-09-18T13:17:18.321Z,12.07
2022-09-18T13:20:06.151Z,11.15
2022-09-18T13:22:39.785Z,9.78
2022-09-18T13:25:34.360Z,14.10
2022-09-18T13:28:13.771Z,7.53
2022-09-18T13:30:46.840Z,9.80
2022-09-18T13:33:27.772Z,9.30
2022-09-18T13:36:01.333Z,8.10
2022-09-18T13:38:35.855Z,10.75
2022-09-18T13:41:12.616Z,13.62
2022-09-18T13:43:57.350Z,8.35
2022-09-18T13:46:40.069Z,13.48
2022-09-18T13:49:32.205Z,15.78
2022-09-18T13:52:38.294Z,9.08
2022-09-18T13:55:18.469Z,6.50
2022-09-18T13:57:52.663Z,10.18
2022-09-18T14:03:17.471Z,9.88
2022-09-18T14:05:50.774Z,6.83
2022-09-18T14:08:28.829Z,5.75
2022-09-18T14:11:15.509Z,9.28
2022-09-18T14:13:54.620Z,10.85
2022-09-18T14:16:36.120Z,5.72
2022-09-18T14:19:33.774Z,7.60
2022-09-18T14:22:26.628Z,6.65
2022-09-18T14:25:03.708Z,10.18
2022-09-18T14:27:52.290Z,8.23
2022-09-18T14:30:30.887Z,6.67
2022-09-18T14:33:19.781Z,11.48
2022-09-18T14:36:05.015Z,19.87
2022-09-18T14:38:41.168Z,8.60
2022-09-18T14:41:26.230Z,8.33
2022-09-18T14:44:04.435Z,8.13
2022-09-18T14:46:37.697Z,13.13
2022-09-18T14:49:15.271Z,7.87
2022-09-18T14:52:03.135Z,8.68
2022-09-18T14:54:26.280Z,8.33
2022-09-18T14:57:02.422Z,9.45
2022-09-18T14:59:35.565Z,10.78
2022-09-18T15:02:33.427Z,15.67
2022-09-18T15:05:13.624Z,9.00
2022-09-18T15:07:53.125Z,9.98
2022-09-18T15:10:28.518Z,13.53
2022-09-18T15:13:04.570Z,9.98
2022-09-18T15:15:40.354Z,11.33
2022-09-18T15:18:24.767Z,8.95
2022-09-18T15:21:02.356Z,12.35
2022-09-18T15:23:39.660Z,9.20
2022-09-18T15:26:15.884Z,12.43
2022-09-18T15:28:51.814Z,10.53
2022-09-18T15:31:32.843Z,13.98
2022-09-18T15:34:22.068Z,8.83
2022-09-18T15:37:04.203Z,10.40
2022-09-18T15:39:41.576Z,11.00
2022-09-18T15:42:21.446Z,12.28
2022-09-18T15:45:04.446Z,11.65
2022-09-18T15:47:41.469Z,13.22
2022-09-18T15:50:21.811Z,10.05
2022-09-18T15:53:01.700Z,14.73
2022-09-18T15:55:57.276Z,9.43
2022-09-18T15:58:37.664Z,8.40
2022-09-18T16:01:22.704Z,8.55
2022-09-18T16:04:18.317Z,17.70
2022-09-18T16:07:00.560Z,17.57
2022-09-18T16:09:46.823Z,8.70
2022-09-18T16:12:36.010Z,16.70
2022-09-18T16:15:22.261Z,11.60
2022-09-18T16:18:04.489Z,14.87
2022-09-18T16:20:42.772Z,10.98
2022-09-18T16:23:38.550Z,9.15
2022-09-18T16:26:37.851Z,8.15
2022-09-18T16:29:24.126Z,16.02
2022-09-18T16:31:57.850Z,19.07
2022-09-18T16:34:31.437Z,14.07
2022-09-18T16:37:05.971Z,15.23
2022-09-18T16:39:39.800Z,7.92
2022-09-18T16:42:20.085Z,13.10
2022-09-18T16:44:57.238Z,15.08
2022-09-18T16:47:30.198Z,7.80
2022-09-18T16:50:03.887Z,11.43
2022-09-18T16:55:09.745Z,8.13
2022-09-18T16:57:42.459Z,8.55
2022-09-18T17:00:15.759Z,11.50
2022-09-18T17:02:49.459Z,11.03
2022-09-18T17:05:22.377Z,7.78
2022-09-18T17:07:55.756Z,10.85
2022-09-18T17:10:30.745Z,7.53
2022-09-18T17:13:04.291Z,12.00
2022-09-18T17:15:37.572Z,7.42
2022-09-18T17:18:10.633Z,10.30
2022-09-18T17:20:43.564Z,7.40
2022-09-18T17:23:16.410Z,12.35
2022-09-18T17:25:49.424Z,6.35
2022-09-18T17:28:22.389Z,11.38
2022-09-18T17:30:56.060Z,8.95
2022-09-18T17:33:29.012Z,8.05
2022-09-18T17:36:10.892Z,13.55
2022-09-18T17:38:44.766Z,10.98
2022-09-18T17:41:19.908Z,13.70
2022-09-18T17:43:53.958Z,10.58
2022-09-18T17:46:26.969Z,9.30
2022-09-18T17:49:01.343Z,11.03
2022-09-18T17:54:07.369Z,11.30
2022-09-18T17:56:41.151Z,8.05
2022-09-18T17:59:14.453Z,8.50
2022-09-18T18:01:50.065Z,8.60
2022-09-18T18:04:22.971Z,7.30
2022-09-18T18:06:55.985Z,9.75
2022-09-18T18:09:30.588Z,12.65
2022-09-18T18:12:05.457Z,8.68
2022-09-18T18:17:10.831Z,8.85
2022-09-18T18:19:44.233Z,10.93
2022-09-18T18:22:17.461Z,7.17
2022-09-18T18:24:51.266Z,6.62
2022-09-18T18:27:24.602Z,10.65
2022-09-18T18:29:57.859Z,6.95
2022-09-18T18:32:32.969Z,5.45
2022-09-18T18:35:06.979Z,5.28
2022-09-18T18:37:40.466Z,5.15
2022-09-18T18:40:14.698Z,5.35
2022-09-18T18:42:47.929Z,7.40
2022-09-18T18:45:22.687Z,9.18
2022-09-18T18:47:58.799Z,5.78
2022-09-18T18:50:33.636Z,6.60
2022-09-18T18:53:08.001Z,5.57
2022-09-18T18:55:43.167Z,4.35
2022-09-18T18:58:17.767Z,5.83
2022-09-18T19:00:50.859Z,5.87
2022-09-18T19:03:24.042Z,4.92
2022-09-18T19:05:57.827Z,6.33
2022-09-18T19:08:31.653Z,5.50
2022-09-18T19:13:45.144Z,5.65
2022-09-18T19:16:19.802Z,8.18
2022-09-18T19:18:59.393Z,6.72
2022-09-18T19:21:32.330Z,5.47
2022-09-18T19:24:05.906Z,6.85
2022-09-18T19:26:41.176Z,3.52
2022-09-18T19:29:16.980Z,5.78
2022-09-18T19:31:51.147Z,2.30
2022-09-18T19:34:24.231Z,4.50
2022-09-18T19:36:58.189Z,7.97
2022-09-18T19:39:30.961Z,2.35
2022-09-18T19:42:14.991Z,7.57
2022-09-18T19:44:56.380Z,4.53
2022-09-18T19:47:33.100Z,3.75
2022-09-18T19:50:07.720Z,5.72
2022-09-18T19:52:43.903Z,5.28
2022-09-18T19:55:21.006Z,8.30
2022-09-18T19:57:59.593Z,6.42
2022-09-18T20:00:32.567Z,3.72
2022-09-18T20:03:05.384Z,4.87
2022-09-18T20:05:43.377Z,6.80
2022-09-18T20:08:17.357Z,6.60
2022-09-18T20:10:50.548Z,5.10
2022-09-18T20:13:23.972Z,3.33
2022-09-18T20:16:06.444Z,5.83
2022-09-18T20:18:40.732Z,5.17
2022-09-18T20:21:16.762Z,4.72
2022-09-18T20:23:49.918Z,8.15
2022-09-18T20:26:22.606Z,3.70
2022-09-18T20:28:55.540Z,7.67
2022-09-18T20:31:28.252Z,4.47
2022-09-18T20:34:02.717Z,6.92
2022-09-18T20:36:35.984Z,6.20
2022-09-18T20:39:08.921Z,7.75
2022-09-18T20:41:42.238Z,5.60
2022-09-18T20:44:15.671Z,9.00
2022-09-18T20:46:50.121Z,7.58
2022-09-18T20:49:25.095Z,6.17
2022-09-18T20:51:58.525Z,6.40
2022-09-18T20:54:31.756Z,7.75
2022-09-18T20:57:04.595Z,10.88
2022-09-18T20:59:39.494Z,9.13
2022-09-18T21:02:14.132Z,5.30
2022-09-18T21:04:50.142Z,8.48
2022-09-18T21:07:24.690Z,7.37
2022-09-18T21:09:58.891Z,4.78
2022-09-18T21:12:33.449Z,10.60
2022-09-18T21:15:14.083Z,5.37
2022-09-18T21:17:48.449Z,6.08
2022-09-18T21:20:21.806Z,5.33
2022-09-18T21:23:12.097Z,8.35
2022-09-18T21:25:44.958Z,9.40
2022-09-18T21:28:17.746Z,3.80
2022-09-18T21:30:50.580Z,2.62
2022-09-18T21:33:24.716Z,1.32
2022-09-18T21:35:57.451Z,4.65
2022-09-18T21:38:31.132Z,0.80
2022-09-18T21:41:10.234Z,1.50
2022-09-18T21:43:44.909Z,2.20
2022-09-18T21:46:20.601Z,1.60
2022-09-18T21:48:54.602Z,1.65
2022-09-18T21:51:27.232Z,0.82
2022-09-18T21:54:00.254Z,3.30
2022-09-18T21:56:34.054Z,3.35
2022-09-18T21:59:08.440Z,4.47
2022-09-18T22:01:43.056Z,2.02
2022-09-18T22:04:15.820Z,2.08
2022-09-18T22:06:50.817Z,2.72
2022-09-18T22:09:37.824Z,2.98
2022-09-18T22:12:13.105Z,2.22
2022-09-18T22:14:46.151Z,3.60
2022-09-18T22:17:19.170Z,2.92
2022-09-18T22:19:53.046Z,1.82
2022-09-18T22:22:27.154Z,3.00
2022-09-18T22:24:59.979Z,4.55
2022-09-18T22:27:32.827Z,3.27
2022-09-18T22:30:06.395Z,5.00
2022-09-18T22:32:39.232Z,9.88
2022-09-18T22:35:12.461Z,5.47
2022-09-18T22:37:45.052Z,7.50
2022-09-18T22:40:18.017Z,5.10
2022-09-18T22:42:50.960Z,3.60
2022-09-18T22:45:23.742Z,3.52
2022-09-18T22:47:56.627Z,4.17
2022-09-18T22:50:29.311Z,1.85
2022-09-18T22:53:02.283Z,0.90
2022-09-18T22:55:35.811Z,4.95
2022-09-18T22:58:08.534Z,1.30
2022-09-18T23:00:41.210Z,2.33
2022-09-18T23:03:13.868Z,5.03
2022-09-18T23:05:47.336Z,3.27
2022-09-18T23:08:20.536Z,2.42
2022-09-18T23:10:54.977Z,1.00
2022-09-18T23:16:06.327Z,1.40
2022-09-18T23:18:40.355Z,0.68
2022-09-18T23:21:14.723Z,3.90
2022-09-18T23:23:48.527Z,4.08
2022-09-18T23:26:25.963Z,3.15
2022-09-18T23:29:00.355Z,3.67
2022-09-18T23:31:36.818Z,0.80
2022-09-18T23:34:14.124Z,0.47
2022-09-18T23:36:50.196Z,1.98
2022-09-18T23:39:28.841Z,0.62
2022-09-18T23:42:03.018Z,1.00
2022-09-18T23:44:35.985Z,4.95
2022-09-18T23:47:08.891Z,0.35
2022-09-18T23:49:41.596Z,3.50
2022-09-18T23:52:14.288Z,0.53
2022-09-18T23:54:47.156Z,1.02
2022-09-18T23:57:19.821Z,1.05
2022-09-18T23:59:53.427Z,0.47
